Tuesday, September 23, 2014
18:27 UTC
  |  Log In   |  Register Free
Airport Search:

Yellowstone Regional Airport
(KCOD)

Yellowstone Regional Airport Diagram
No Airport Diagram Available

FAA data valid effective September 18, 2014 - November 13, 2014 (unless otherwise noted).

 
 
 
 
 
 
 
 
 
 
 
 
 
 

Current Aviation Weather for Yellowstone Regional Airport (KCOD)

The most recent METAR observation for KCOD was updated at: 1808
METAR Summary (Translated METAR)
KCOD
231755Z AUTO 23007KT 10SM CLR 23/07 A3011 RMK AO1 52007
KPOY
231755Z AUTO 11004KT 10SM SCT090 24/06 A3011 RMK AO2
(23 nm NE from KCOD)
KGEY
231753Z AUTO 26004KT 10SM CLR 23/08 A3006 RMK AO2 SLP149 T02330078 10233 20106 50001
(40.3 nm SE from KCOD)
TAF Summary (Translated TAF)
KCOD
231722Z 2318/2418 25008KT P6SM SCT080 FM232000 16006KT P6SM SCT080 FM232200 VRB10G15KT P6SM VCSH BKN080 FM240200 20006KT P6SM SKC AMD LTD TO CLD VIS AND WIND
  Airport Weather Conditions for KCOD

 Current Weather at COD
72° F
Fair
West winds at 9.2 mph
COD NOAA Radar

Pressure: 30.11 in
Humidity: 38%
Wind: from the West at 9.2 gusting to 16.1 MPH (8 gusting to 14 KT)
Dew Point: 44.6°F
Visibility: 10.00 mi


Airport Weather Forecast for KCOD

Translated METAR and TAF for KCOD
Translated METAR for KCOD (1821 UTC 23 September 2014)
found at http://aviationweather.gov/adds/metars/
 
METAR text: KCOD 231815Z AUTO 27008KT 10SM CLR 24/07 A3011 RMK AO1
Conditions at: KCOD (CODY , WY, US) observed 1815 UTC 23 September 2014
Temperature: 24.0°C (75°F)
Dewpoint: 7.0°C (45°F) [RH = 34%]
Pressure (altimeter): 30.11 inches Hg (1019.7 mb)
Winds: from the W (270 degrees) at 9 MPH (8 knots; 4.2 m/s)
Visibility: 10 or more miles (16+ km)
Ceiling: at least 12,000 feet AGL
Clouds: sky clear below 12,000 feet AGL
Weather: automated observation with no human augmentation;
there may or may not be significant weather present at this time
Translated TAF for KCOD
Forecast for: KCOD (CODY , WY, US)
TAF Text: KCOD 231722Z 2318/2418 25008KT P6SM SCT080
Forecast period: 1800 to 2000 UTC 23 September 2014
Forecast type: FROM: standard forecast or significant change
Winds: from the WSW (250 degrees) at 9 MPH (8 knots; 4.2 m/s)
Visibility: 6 or more miles (10+ km)
Clouds: scattered clouds at 8000 feet AGL
Weather: no significant weather forecast for this period
TAF Text: FM232000 16006KT P6SM SCT080
Forecast period: 2000 to 2200 UTC 23 September 2014
Forecast type: FROM: standard forecast or significant change
Winds: from the SSE (160 degrees) at 7 MPH (6 knots; 3.1 m/s)
Visibility: 6 or more miles (10+ km)
Clouds: scattered clouds at 8000 feet AGL
Weather: no significant weather forecast for this period
TAF Text: FM232200 VRB10G15KT P6SM VCSH BKN080
Forecast period: 2200 UTC 23 September 2014 to 0200 UTC 24 September 2014
Forecast type: FROM: standard forecast or significant change
Winds: variable direction winds at 12 MPH (10 knots; 5.2 m/s)
gusting to 17 MPH (15 knots; 7.8 m/s)
Visibility: 6 or more miles (10+ km)
Ceiling: 8000 feet AGL
Clouds: broken clouds at 8000 feet AGL
Weather: VCSH  (showers in vicinity)
TAF Text: FM240200 20006KT P6SM SKC AMD LTD TO CLD VIS AND WIND
Forecast period: 0200 to 1800 UTC 24 September 2014
Forecast type: FROM: standard forecast or significant change
Winds: from the SSW (200 degrees) at 7 MPH (6 knots; 3.1 m/s)
Visibility: 6 or more miles (10+ km)
Clouds: clear skies
Weather: no significant weather forecast for this period

Find All Airport Services Find A Hotel Find A Rental Car Find A Golf Course Find A Restaurant $100 Hamburger



FBO's on the Field
FBO Company Facility Photos Services Transportation Aviation Fuel Prices: Prices include tax
Catering Weather Repair Courtesy Rental Type 100LL JetA JetA+ MOGAS 8087
 
Choice Aviation, LLC

This FBO has not yet been rated
FS:Avfuel
Last Updated: Aug-29
Login to update fuel prices
SS:
Contact Choice Aviation, LLCMore FBO Information
 
Add another FBO Facility Photos Catering Weather Repair Courtesy Rental Type 100LL JetA JetA+ MOGAS 8087
Services Transportation Aviation Fuel Prices: Prices include tax


model-print
model-print
model-print
model-print